sensor_id;sensor_type;location;lat;lon;timestamp;P1;durP1;ratioP1;P2;durP2;ratioP2
54384;SDS011;40284;52.878;5.998;2024-03-02T00:00:07;4.05;;;2.35;;
54384;SDS011;40284;52.878;5.998;2024-03-02T00:02:42;6.50;;;2.67;;
54384;SDS011;40284;52.878;5.998;2024-03-02T00:05:16;6.15;;;2.50;;
54384;SDS011;40284;52.878;5.998;2024-03-02T00:07:43;5.63;;;2.55;;
54384;SDS011;40284;52.878;5.998;2024-03-02T00:10:10;5.60;;;1.98;;
54384;SDS011;40284;52.878;5.998;2024-03-02T00:12:40;4.65;;;2.42;;
54384;SDS011;40284;52.878;5.998;2024-03-02T00:15:07;3.78;;;2.40;;
54384;SDS011;40284;52.878;5.998;2024-03-02T00:17:45;3.97;;;2.60;;
54384;SDS011;40284;52.878;5.998;2024-03-02T00:20:11;3.55;;;2.17;;
54384;SDS011;40284;52.878;5.998;2024-03-02T00:22:43;3.90;;;2.50;;
54384;SDS011;40284;52.878;5.998;2024-03-02T00:25:09;3.20;;;2.45;;
54384;SDS011;40284;52.878;5.998;2024-03-02T00:27:37;4.88;;;2.40;;
54384;SDS011;40284;52.878;5.998;2024-03-02T00:30:06;4.47;;;3.17;;
54384;SDS011;40284;52.878;5.998;2024-03-02T00:32:42;3.75;;;2.15;;
54384;SDS011;40284;52.878;5.998;2024-03-02T00:35:08;5.03;;;3.08;;
54384;SDS011;40284;52.878;5.998;2024-03-02T00:37:35;5.07;;;2.53;;
54384;SDS011;40284;52.878;5.998;2024-03-02T00:40:01;5.53;;;2.05;;
54384;SDS011;40284;52.878;5.998;2024-03-02T00:42:29;4.40;;;2.63;;
54384;SDS011;40284;52.878;5.998;2024-03-02T00:44:56;4.03;;;3.13;;
54384;SDS011;40284;52.878;5.998;2024-03-02T00:47:22;4.13;;;2.40;;
54384;SDS011;40284;52.878;5.998;2024-03-02T00:49:49;4.03;;;2.05;;
54384;SDS011;40284;52.878;5.998;2024-03-02T00:52:15;6.63;;;2.25;;
54384;SDS011;40284;52.878;5.998;2024-03-02T00:54:41;4.28;;;2.45;;
54384;SDS011;40284;52.878;5.998;2024-03-02T00:57:09;3.60;;;2.55;;
54384;SDS011;40284;52.878;5.998;2024-03-02T00:59:37;4.60;;;2.00;;
54384;SDS011;40284;52.878;5.998;2024-03-02T01:02:03;5.68;;;2.30;;
54384;SDS011;40284;52.878;5.998;2024-03-02T01:04:29;5.07;;;2.50;;
54384;SDS011;40284;52.878;5.998;2024-03-02T01:06:55;5.88;;;2.22;;
54384;SDS011;40284;52.878;5.998;2024-03-02T01:09:23;3.30;;;2.35;;
54384;SDS011;40284;52.878;5.998;2024-03-02T01:11:49;5.18;;;2.50;;
54384;SDS011;40284;52.878;5.998;2024-03-02T01:14:16;4.15;;;2.10;;
54384;SDS011;40284;52.878;5.998;2024-03-02T01:16:42;3.83;;;2.50;;
54384;SDS011;40284;52.878;5.998;2024-03-02T01:19:08;3.80;;;2.28;;
54384;SDS011;40284;52.878;5.998;2024-03-02T01:21:34;4.30;;;2.22;;
54384;SDS011;40284;52.878;5.998;2024-03-02T01:24:01;3.88;;;2.10;;
54384;SDS011;40284;52.878;5.998;2024-03-02T01:26:27;3.95;;;2.40;;
54384;SDS011;40284;52.878;5.998;2024-03-02T01:28:53;3.67;;;2.13;;
54384;SDS011;40284;52.878;5.998;2024-03-02T01:31:19;3.40;;;2.17;;
54384;SDS011;40284;52.878;5.998;2024-03-02T01:33:45;2.90;;;1.90;;
54384;SDS011;40284;52.878;5.998;2024-03-02T01:36:11;3.95;;;1.85;;
54384;SDS011;40284;52.878;5.998;2024-03-02T01:38:37;4.63;;;2.78;;
54384;SDS011;40284;52.878;5.998;2024-03-02T01:41:04;4.78;;;1.90;;
54384;SDS011;40284;52.878;5.998;2024-03-02T01:43:30;5.40;;;1.88;;
54384;SDS011;40284;52.878;5.998;2024-03-02T01:45:56;4.57;;;1.77;;
54384;SDS011;40284;52.878;5.998;2024-03-02T01:48:22;3.67;;;2.38;;
54384;SDS011;40284;52.878;5.998;2024-03-02T01:50:48;3.83;;;2.03;;
54384;SDS011;40284;52.878;5.998;2024-03-02T01:53:14;5.18;;;2.28;;
54384;SDS011;40284;52.878;5.998;2024-03-02T01:55:40;3.92;;;2.20;;
54384;SDS011;40284;52.878;5.998;2024-03-02T01:58:06;4.93;;;2.75;;
54384;SDS011;40284;52.878;5.998;2024-03-02T02:00:32;5.10;;;2.45;;
54384;SDS011;40284;52.878;5.998;2024-03-02T02:02:59;3.47;;;2.22;;
54384;SDS011;40284;52.878;5.998;2024-03-02T02:05:25;2.50;;;1.80;;
54384;SDS011;40284;52.878;5.998;2024-03-02T02:07:51;4.95;;;2.03;;
54384;SDS011;40284;52.878;5.998;2024-03-02T02:10:17;6.25;;;2.40;;
54384;SDS011;40284;52.878;5.998;2024-03-02T02:12:43;5.22;;;2.17;;
54384;SDS011;40284;52.878;5.998;2024-03-02T02:15:22;9.13;;;2.15;;
54384;SDS011;40284;52.878;5.998;2024-03-02T02:17:49;4.15;;;1.90;;
54384;SDS011;40284;52.878;5.998;2024-03-02T02:20:15;4.95;;;2.00;;
54384;SDS011;40284;52.878;5.998;2024-03-02T02:22:52;3.03;;;1.75;;
54384;SDS011;40284;52.878;5.998;2024-03-02T02:25:18;2.75;;;1.80;;
54384;SDS011;40284;52.878;5.998;2024-03-02T02:27:44;1.83;;;1.40;;
54384;SDS011;40284;52.878;5.998;2024-03-02T02:30:10;4.63;;;1.77;;
54384;SDS011;40284;52.878;5.998;2024-03-02T02:32:36;5.00;;;2.65;;
54384;SDS011;40284;52.878;5.998;2024-03-02T02:35:02;5.65;;;1.80;;
54384;SDS011;40284;52.878;5.998;2024-03-02T02:37:29;4.40;;;1.60;;
54384;SDS011;40284;52.878;5.998;2024-03-02T02:39:55;3.05;;;1.73;;
54384;SDS011;40284;52.878;5.998;2024-03-02T02:42:21;4.82;;;1.70;;
54384;SDS011;40284;52.878;5.998;2024-03-02T02:44:47;3.85;;;1.70;;
54384;SDS011;40284;52.878;5.998;2024-03-02T02:47:13;2.72;;;1.60;;
54384;SDS011;40284;52.878;5.998;2024-03-02T02:49:39;1.98;;;1.30;;
54384;SDS011;40284;52.878;5.998;2024-03-02T02:52:05;7.85;;;2.20;;
54384;SDS011;40284;52.878;5.998;2024-03-02T02:54:31;3.30;;;1.52;;
54384;SDS011;40284;52.878;5.998;2024-03-02T02:56:57;4.43;;;1.48;;
54384;SDS011;40284;52.878;5.998;2024-03-02T02:59:24;5.35;;;1.77;;
54384;SDS011;40284;52.878;5.998;2024-03-02T03:01:51;4.80;;;1.75;;
54384;SDS011;40284;52.878;5.998;2024-03-02T03:04:18;4.25;;;1.58;;
54384;SDS011;40284;52.878;5.998;2024-03-02T03:06:44;2.22;;;1.13;;
54384;SDS011;40284;52.878;5.998;2024-03-02T03:09:11;2.10;;;1.38;;
54384;SDS011;40284;52.878;5.998;2024-03-02T03:11:37;3.22;;;1.42;;
54384;SDS011;40284;52.878;5.998;2024-03-02T03:14:03;4.68;;;1.83;;
54384;SDS011;40284;52.878;5.998;2024-03-02T03:16:30;2.83;;;1.50;;
54384;SDS011;40284;52.878;5.998;2024-03-02T03:18:56;3.03;;;1.42;;
54384;SDS011;40284;52.878;5.998;2024-03-02T03:21:22;2.97;;;1.42;;
54384;SDS011;40284;52.878;5.998;2024-03-02T03:23:48;3.03;;;1.10;;
54384;SDS011;40284;52.878;5.998;2024-03-02T03:26:14;2.83;;;1.20;;
54384;SDS011;40284;52.878;5.998;2024-03-02T03:28:40;4.93;;;1.60;;
54384;SDS011;40284;52.878;5.998;2024-03-02T03:31:06;5.05;;;1.67;;
54384;SDS011;40284;52.878;5.998;2024-03-02T03:33:32;2.97;;;1.48;;
54384;SDS011;40284;52.878;5.998;2024-03-02T03:36:00;3.05;;;1.55;;
54384;SDS011;40284;52.878;5.998;2024-03-02T03:38:28;3.00;;;1.10;;
54384;SDS011;40284;52.878;5.998;2024-03-02T03:40:55;2.22;;;1.33;;
54384;SDS011;40284;52.878;5.998;2024-03-02T03:43:21;2.13;;;1.30;;
54384;SDS011;40284;52.878;5.998;2024-03-02T03:45:47;2.33;;;1.55;;
54384;SDS011;40284;52.878;5.998;2024-03-02T03:48:13;7.70;;;1.70;;
54384;SDS011;40284;52.878;5.998;2024-03-02T03:50:39;4.35;;;1.38;;
54384;SDS011;40284;52.878;5.998;2024-03-02T03:53:06;3.65;;;1.73;;
54384;SDS011;40284;52.878;5.998;2024-03-02T03:55:32;2.90;;;1.77;;
54384;SDS011;40284;52.878;5.998;2024-03-02T03:57:58;4.05;;;1.90;;
54384;SDS011;40284;52.878;5.998;2024-03-02T04:00:24;3.97;;;1.45;;
54384;SDS011;40284;52.878;5.998;2024-03-02T04:02:50;1.98;;;1.30;;
54384;SDS011;40284;52.878;5.998;2024-03-02T04:05:16;4.07;;;1.40;;
54384;SDS011;40284;52.878;5.998;2024-03-02T04:07:42;2.95;;;1.08;;
54384;SDS011;40284;52.878;5.998;2024-03-02T04:10:09;1.17;;;0.60;;
54384;SDS011;40284;52.878;5.998;2024-03-02T04:12:36;1.17;;;0.63;;
54384;SDS011;40284;52.878;5.998;2024-03-02T04:15:03;0.60;;;0.60;;
54384;SDS011;40284;52.878;5.998;2024-03-02T04:17:31;1.20;;;0.65;;
54384;SDS011;40284;52.878;5.998;2024-03-02T04:19:58;2.20;;;0.90;;
54384;SDS011;40284;52.878;5.998;2024-03-02T04:22:24;1.13;;;0.82;;
54384;SDS011;40284;52.878;5.998;2024-03-02T04:24:50;0.95;;;0.50;;
54384;SDS011;40284;52.878;5.998;2024-03-02T04:27:17;1.27;;;0.70;;
54384;SDS011;40284;52.878;5.998;2024-03-02T04:29:43;1.67;;;0.70;;
54384;SDS011;40284;52.878;5.998;2024-03-02T04:32:09;0.77;;;0.57;;
54384;SDS011;40284;52.878;5.998;2024-03-02T04:34:35;0.68;;;0.57;;
54384;SDS011;40284;52.878;5.998;2024-03-02T04:37:01;1.20;;;0.43;;
54384;SDS011;40284;52.878;5.998;2024-03-02T04:39:27;0.60;;;0.50;;
54384;SDS011;40284;52.878;5.998;2024-03-02T04:41:53;0.50;;;0.47;;
54384;SDS011;40284;52.878;5.998;2024-03-02T04:44:19;0.90;;;0.50;;
54384;SDS011;40284;52.878;5.998;2024-03-02T04:46:45;1.00;;;0.52;;
54384;SDS011;40284;52.878;5.998;2024-03-02T04:49:11;0.80;;;0.50;;
54384;SDS011;40284;52.878;5.998;2024-03-02T04:51:37;1.33;;;0.55;;
54384;SDS011;40284;52.878;5.998;2024-03-02T04:54:03;1.08;;;0.60;;
54384;SDS011;40284;52.878;5.998;2024-03-02T04:56:29;1.15;;;0.50;;
54384;SDS011;40284;52.878;5.998;2024-03-02T04:59:15;0.88;;;0.45;;
54384;SDS011;40284;52.878;5.998;2024-03-02T05:01:42;1.52;;;0.60;;
54384;SDS011;40284;52.878;5.998;2024-03-02T05:04:08;1.02;;;0.68;;
54384;SDS011;40284;52.878;5.998;2024-03-02T05:06:37;1.02;;;0.63;;
54384;SDS011;40284;52.878;5.998;2024-03-02T05:09:04;0.70;;;0.50;;
54384;SDS011;40284;52.878;5.998;2024-03-02T05:11:30;0.93;;;0.60;;
54384;SDS011;40284;52.878;5.998;2024-03-02T05:14:03;1.13;;;0.68;;
54384;SDS011;40284;52.878;5.998;2024-03-02T05:16:29;1.05;;;0.82;;
54384;SDS011;40284;52.878;5.998;2024-03-02T05:18:55;1.52;;;0.80;;
54384;SDS011;40284;52.878;5.998;2024-03-02T05:21:21;0.88;;;0.80;;
54384;SDS011;40284;52.878;5.998;2024-03-02T05:23:47;1.45;;;0.80;;
54384;SDS011;40284;52.878;5.998;2024-03-02T05:26:13;1.23;;;0.82;;
54384;SDS011;40284;52.878;5.998;2024-03-02T05:28:39;1.13;;;0.90;;
54384;SDS011;40284;52.878;5.998;2024-03-02T05:31:05;1.08;;;0.63;;
54384;SDS011;40284;52.878;5.998;2024-03-02T05:33:31;1.55;;;0.82;;
54384;SDS011;40284;52.878;5.998;2024-03-02T05:35:58;1.13;;;0.80;;
54384;SDS011;40284;52.878;5.998;2024-03-02T05:38:24;2.00;;;0.80;;
54384;SDS011;40284;52.878;5.998;2024-03-02T05:40:50;1.13;;;0.80;;
54384;SDS011;40284;52.878;5.998;2024-03-02T05:43:16;1.05;;;0.73;;
54384;SDS011;40284;52.878;5.998;2024-03-02T05:45:43;1.60;;;0.98;;
54384;SDS011;40284;52.878;5.998;2024-03-02T05:48:09;1.05;;;0.70;;
54384;SDS011;40284;52.878;5.998;2024-03-02T05:50:35;1.42;;;0.70;;
54384;SDS011;40284;52.878;5.998;2024-03-02T05:53:01;2.28;;;0.77;;
54384;SDS011;40284;52.878;5.998;2024-03-02T05:55:27;0.75;;;0.57;;
54384;SDS011;40284;52.878;5.998;2024-03-02T05:57:53;0.70;;;0.60;;
54384;SDS011;40284;52.878;5.998;2024-03-02T06:00:25;1.85;;;0.70;;
54384;SDS011;40284;52.878;5.998;2024-03-02T06:02:51;1.10;;;0.70;;
54384;SDS011;40284;52.878;5.998;2024-03-02T06:05:17;1.00;;;0.70;;
54384;SDS011;40284;52.878;5.998;2024-03-02T06:07:44;1.45;;;0.70;;
54384;SDS011;40284;52.878;5.998;2024-03-02T06:10:10;1.35;;;0.80;;
54384;SDS011;40284;52.878;5.998;2024-03-02T06:12:36;1.20;;;0.60;;
54384;SDS011;40284;52.878;5.998;2024-03-02T06:15:02;1.83;;;0.77;;
54384;SDS011;40284;52.878;5.998;2024-03-02T06:17:29;1.23;;;0.68;;
54384;SDS011;40284;52.878;5.998;2024-03-02T06:19:55;1.40;;;1.00;;
54384;SDS011;40284;52.878;5.998;2024-03-02T06:22:21;1.50;;;0.77;;
54384;SDS011;40284;52.878;5.998;2024-03-02T06:24:50;3.85;;;0.85;;
54384;SDS011;40284;52.878;5.998;2024-03-02T06:27:16;1.10;;;0.60;;
54384;SDS011;40284;52.878;5.998;2024-03-02T06:29:42;1.05;;;0.60;;
54384;SDS011;40284;52.878;5.998;2024-03-02T06:32:08;1.55;;;1.00;;
54384;SDS011;40284;52.878;5.998;2024-03-02T06:34:34;1.50;;;0.80;;
54384;SDS011;40284;52.878;5.998;2024-03-02T06:37:03;0.88;;;0.70;;
54384;SDS011;40284;52.878;5.998;2024-03-02T06:39:30;1.90;;;1.00;;
54384;SDS011;40284;52.878;5.998;2024-03-02T06:41:59;1.83;;;0.90;;
54384;SDS011;40284;52.878;5.998;2024-03-02T06:44:25;1.63;;;0.80;;
54384;SDS011;40284;52.878;5.998;2024-03-02T06:46:51;2.05;;;0.80;;
54384;SDS011;40284;52.878;5.998;2024-03-02T06:49:17;2.33;;;0.82;;
54384;SDS011;40284;52.878;5.998;2024-03-02T06:51:43;1.45;;;1.00;;
54384;SDS011;40284;52.878;5.998;2024-03-02T06:54:09;1.77;;;1.00;;
54384;SDS011;40284;52.878;5.998;2024-03-02T06:56:35;1.83;;;0.80;;
54384;SDS011;40284;52.878;5.998;2024-03-02T06:59:03;0.90;;;0.70;;
54384;SDS011;40284;52.878;5.998;2024-03-02T07:01:29;1.48;;;0.82;;
54384;SDS011;40284;52.878;5.998;2024-03-02T07:03:55;4.32;;;1.00;;
54384;SDS011;40284;52.878;5.998;2024-03-02T07:06:21;2.13;;;1.00;;
54384;SDS011;40284;52.878;5.998;2024-03-02T07:08:47;1.38;;;0.80;;
54384;SDS011;40284;52.878;5.998;2024-03-02T07:11:13;2.67;;;1.33;;
54384;SDS011;40284;52.878;5.998;2024-03-02T07:13:39;2.17;;;0.73;;
54384;SDS011;40284;52.878;5.998;2024-03-02T07:16:06;1.05;;;0.65;;
54384;SDS011;40284;52.878;5.998;2024-03-02T07:18:53;1.92;;;0.95;;
54384;SDS011;40284;52.878;5.998;2024-03-02T07:21:20;2.50;;;0.80;;
54384;SDS011;40284;52.878;5.998;2024-03-02T07:23:47;1.15;;;0.70;;
54384;SDS011;40284;52.878;5.998;2024-03-02T07:26:13;2.30;;;0.90;;
54384;SDS011;40284;52.878;5.998;2024-03-02T07:28:46;3.30;;;1.02;;
54384;SDS011;40284;52.878;5.998;2024-03-02T07:31:13;4.10;;;1.50;;
54384;SDS011;40284;52.878;5.998;2024-03-02T07:33:40;3.92;;;1.45;;
54384;SDS011;40284;52.878;5.998;2024-03-02T07:36:07;5.20;;;2.72;;
54384;SDS011;40284;52.878;5.998;2024-03-02T07:38:33;5.57;;;3.38;;
54384;SDS011;40284;52.878;5.998;2024-03-02T07:41:00;7.43;;;3.35;;
54384;SDS011;40284;52.878;5.998;2024-03-02T07:43:26;14.65;;;6.95;;
54384;SDS011;40284;52.878;5.998;2024-03-02T07:45:52;18.85;;;9.52;;
54384;SDS011;40284;52.878;5.998;2024-03-02T07:48:18;34.15;;;15.73;;
54384;SDS011;40284;52.878;5.998;2024-03-02T07:50:44;21.92;;;10.50;;
54384;SDS011;40284;52.878;5.998;2024-03-02T07:53:10;12.88;;;6.90;;
54384;SDS011;40284;52.878;5.998;2024-03-02T07:55:37;11.27;;;5.45;;
54384;SDS011;40284;52.878;5.998;2024-03-02T07:58:03;7.97;;;3.28;;
54384;SDS011;40284;52.878;5.998;2024-03-02T08:00:29;5.95;;;3.05;;
54384;SDS011;40284;52.878;5.998;2024-03-02T08:02:55;9.05;;;3.70;;
54384;SDS011;40284;52.878;5.998;2024-03-02T08:05:21;11.15;;;4.68;;
54384;SDS011;40284;52.878;5.998;2024-03-02T08:07:47;11.55;;;3.85;;
54384;SDS011;40284;52.878;5.998;2024-03-02T08:10:17;9.52;;;4.40;;
54384;SDS011;40284;52.878;5.998;2024-03-02T08:12:44;9.13;;;3.95;;
54384;SDS011;40284;52.878;5.998;2024-03-02T08:15:10;8.43;;;3.72;;
54384;SDS011;40284;52.878;5.998;2024-03-02T08:17:38;7.28;;;3.40;;
54384;SDS011;40284;52.878;5.998;2024-03-02T08:20:10;7.25;;;3.45;;
54384;SDS011;40284;52.878;5.998;2024-03-02T08:22:36;9.25;;;3.47;;
54384;SDS011;40284;52.878;5.998;2024-03-02T08:25:02;5.72;;;2.17;;
54384;SDS011;40284;52.878;5.998;2024-03-02T08:27:28;4.72;;;1.92;;
54384;SDS011;40284;52.878;5.998;2024-03-02T08:29:54;4.70;;;1.98;;
54384;SDS011;40284;52.878;5.998;2024-03-02T08:32:20;4.43;;;2.13;;
54384;SDS011;40284;52.878;5.998;2024-03-02T08:34:47;4.57;;;2.17;;
54384;SDS011;40284;52.878;5.998;2024-03-02T08:37:13;5.57;;;2.05;;
54384;SDS011;40284;52.878;5.998;2024-03-02T08:39:39;5.28;;;1.35;;
54384;SDS011;40284;52.878;5.998;2024-03-02T08:42:05;4.35;;;1.38;;
54384;SDS011;40284;52.878;5.998;2024-03-02T08:44:31;2.25;;;1.10;;
54384;SDS011;40284;52.878;5.998;2024-03-02T08:46:58;2.13;;;1.10;;
54384;SDS011;40284;52.878;5.998;2024-03-02T08:49:24;1.52;;;0.75;;
54384;SDS011;40284;52.878;5.998;2024-03-02T08:51:50;4.72;;;1.33;;
54384;SDS011;40284;52.878;5.998;2024-03-02T08:54:22;3.50;;;0.95;;
54384;SDS011;40284;52.878;5.998;2024-03-02T08:56:49;5.68;;;1.50;;
54384;SDS011;40284;52.878;5.998;2024-03-02T08:59:15;5.32;;;1.90;;
54384;SDS011;40284;52.878;5.998;2024-03-02T09:01:42;3.90;;;1.33;;
54384;SDS011;40284;52.878;5.998;2024-03-02T09:04:08;2.38;;;0.85;;
54384;SDS011;40284;52.878;5.998;2024-03-02T09:06:34;2.00;;;1.08;;
54384;SDS011;40284;52.878;5.998;2024-03-02T09:09:00;3.13;;;1.42;;
54384;SDS011;40284;52.878;5.998;2024-03-02T09:11:26;2.88;;;1.05;;
54384;SDS011;40284;52.878;5.998;2024-03-02T09:13:53;2.47;;;0.90;;
54384;SDS011;40284;52.878;5.998;2024-03-02T09:16:20;2.22;;;0.77;;
54384;SDS011;40284;52.878;5.998;2024-03-02T09:18:47;6.00;;;1.27;;
54384;SDS011;40284;52.878;5.998;2024-03-02T09:21:13;1.50;;;0.80;;
54384;SDS011;40284;52.878;5.998;2024-03-02T09:23:40;2.88;;;0.98;;
54384;SDS011;40284;52.878;5.998;2024-03-02T09:26:06;4.05;;;0.80;;
54384;SDS011;40284;52.878;5.998;2024-03-02T09:28:32;2.60;;;1.20;;
54384;SDS011;40284;52.878;5.998;2024-03-02T09:31:00;5.72;;;1.35;;
54384;SDS011;40284;52.878;5.998;2024-03-02T09:33:26;6.22;;;1.75;;
54384;SDS011;40284;52.878;5.998;2024-03-02T09:35:52;5.07;;;1.40;;
54384;SDS011;40284;52.878;5.998;2024-03-02T09:38:18;2.40;;;1.33;;
54384;SDS011;40284;52.878;5.998;2024-03-02T09:40:44;2.95;;;1.23;;
54384;SDS011;40284;52.878;5.998;2024-03-02T09:43:10;5.00;;;1.30;;
54384;SDS011;40284;52.878;5.998;2024-03-02T09:45:36;5.45;;;1.48;;
54384;SDS011;40284;52.878;5.998;2024-03-02T09:48:03;3.88;;;1.10;;
54384;SDS011;40284;52.878;5.998;2024-03-02T09:50:29;3.03;;;1.38;;
54384;SDS011;40284;52.878;5.998;2024-03-02T09:52:55;2.72;;;1.10;;
54384;SDS011;40284;52.878;5.998;2024-03-02T09:55:21;4.07;;;1.17;;
54384;SDS011;40284;52.878;5.998;2024-03-02T09:57:48;3.47;;;1.10;;
54384;SDS011;40284;52.878;5.998;2024-03-02T10:00:14;3.65;;;1.13;;
54384;SDS011;40284;52.878;5.998;2024-03-02T10:02:41;3.58;;;1.40;;
54384;SDS011;40284;52.878;5.998;2024-03-02T10:05:08;5.57;;;1.27;;
54384;SDS011;40284;52.878;5.998;2024-03-02T10:07:34;3.85;;;1.33;;
54384;SDS011;40284;52.878;5.998;2024-03-02T10:10:12;3.20;;;1.27;;
54384;SDS011;40284;52.878;5.998;2024-03-02T10:12:38;3.17;;;1.25;;
54384;SDS011;40284;52.878;5.998;2024-03-02T10:15:04;3.92;;;1.50;;
54384;SDS011;40284;52.878;5.998;2024-03-02T10:17:33;5.80;;;1.20;;
54384;SDS011;40284;52.878;5.998;2024-03-02T10:19:59;3.25;;;1.17;;
54384;SDS011;40284;52.878;5.998;2024-03-02T10:22:25;3.55;;;1.20;;
54384;SDS011;40284;52.878;5.998;2024-03-02T10:24:51;5.75;;;0.90;;
54384;SDS011;40284;52.878;5.998;2024-03-02T10:27:25;3.20;;;1.20;;
54384;SDS011;40284;52.878;5.998;2024-03-02T10:29:52;3.40;;;1.23;;
54384;SDS011;40284;52.878;5.998;2024-03-02T10:32:18;3.00;;;1.10;;
54384;SDS011;40284;52.878;5.998;2024-03-02T10:34:47;7.78;;;1.40;;
54384;SDS011;40284;52.878;5.998;2024-03-02T10:37:14;2.88;;;1.08;;
54384;SDS011;40284;52.878;5.998;2024-03-02T10:39:40;5.68;;;1.40;;
54384;SDS011;40284;52.878;5.998;2024-03-02T10:42:06;4.22;;;1.20;;
54384;SDS011;40284;52.878;5.998;2024-03-02T10:44:33;3.60;;;2.08;;
54384;SDS011;40284;52.878;5.998;2024-03-02T10:47:00;3.63;;;1.35;;
54384;SDS011;40284;52.878;5.998;2024-03-02T10:49:29;4.20;;;1.80;;
54384;SDS011;40284;52.878;5.998;2024-03-02T10:51:55;4.30;;;1.60;;
54384;SDS011;40284;52.878;5.998;2024-03-02T10:54:21;5.05;;;1.90;;
54384;SDS011;40284;52.878;5.998;2024-03-02T10:56:51;4.13;;;1.05;;
54384;SDS011;40284;52.878;5.998;2024-03-02T11:01:50;4.90;;;1.20;;
54384;SDS011;40284;52.878;5.998;2024-03-02T11:04:18;3.63;;;1.83;;
54384;SDS011;40284;52.878;5.998;2024-03-02T11:06:49;3.25;;;1.17;;
54384;SDS011;40284;52.878;5.998;2024-03-02T11:09:16;3.15;;;1.70;;
54384;SDS011;40284;52.878;5.998;2024-03-02T11:11:42;2.30;;;1.13;;
54384;SDS011;40284;52.878;5.998;2024-03-02T11:14:13;6.47;;;1.30;;
54384;SDS011;40284;52.878;5.998;2024-03-02T11:16:39;2.50;;;0.98;;
54384;SDS011;40284;52.878;5.998;2024-03-02T11:19:07;4.80;;;1.42;;
54384;SDS011;40284;52.878;5.998;2024-03-02T11:21:34;5.95;;;1.30;;
54384;SDS011;40284;52.878;5.998;2024-03-02T11:24:27;4.82;;;1.27;;
54384;SDS011;40284;52.878;5.998;2024-03-02T11:26:50;4.40;;;1.42;;
54384;SDS011;40284;52.878;5.998;2024-03-02T11:32:01;3.47;;;1.02;;
54384;SDS011;40284;52.878;5.998;2024-03-02T11:34:28;5.82;;;1.63;;
54384;SDS011;40284;52.878;5.998;2024-03-02T11:36:55;4.78;;;1.70;;
54384;SDS011;40284;52.878;5.998;2024-03-02T11:39:21;2.42;;;1.00;;
54384;SDS011;40284;52.878;5.998;2024-03-02T11:41:47;3.50;;;1.08;;
54384;SDS011;40284;52.878;5.998;2024-03-02T11:44:13;4.43;;;1.17;;
54384;SDS011;40284;52.878;5.998;2024-03-02T11:46:41;3.40;;;1.10;;
54384;SDS011;40284;52.878;5.998;2024-03-02T11:49:07;4.03;;;1.20;;
54384;SDS011;40284;52.878;5.998;2024-03-02T11:51:34;3.80;;;1.45;;
54384;SDS011;40284;52.878;5.998;2024-03-02T11:54:01;7.53;;;1.48;;
54384;SDS011;40284;52.878;5.998;2024-03-02T11:56:28;4.35;;;1.10;;
54384;SDS011;40284;52.878;5.998;2024-03-02T11:58:57;3.63;;;1.08;;
54384;SDS011;40284;52.878;5.998;2024-03-02T12:01:23;2.97;;;1.13;;
54384;SDS011;40284;52.878;5.998;2024-03-02T12:03:49;3.10;;;1.00;;
54384;SDS011;40284;52.878;5.998;2024-03-02T12:06:15;3.38;;;1.27;;
54384;SDS011;40284;52.878;5.998;2024-03-02T12:08:41;3.30;;;1.02;;
54384;SDS011;40284;52.878;5.998;2024-03-02T12:11:08;4.03;;;1.17;;
54384;SDS011;40284;52.878;5.998;2024-03-02T12:13:38;3.72;;;1.25;;
54384;SDS011;40284;52.878;5.998;2024-03-02T12:16:04;3.83;;;1.33;;
54384;SDS011;40284;52.878;5.998;2024-03-02T12:18:31;7.90;;;1.05;;
54384;SDS011;40284;52.878;5.998;2024-03-02T12:20:57;4.13;;;1.00;;
54384;SDS011;40284;52.878;5.998;2024-03-02T12:23:23;3.40;;;1.08;;
54384;SDS011;40284;52.878;5.998;2024-03-02T12:25:49;2.65;;;0.90;;
54384;SDS011;40284;52.878;5.998;2024-03-02T12:28:16;4.20;;;1.15;;
54384;SDS011;40284;52.878;5.998;2024-03-02T12:30:42;5.07;;;1.08;;
54384;SDS011;40284;52.878;5.998;2024-03-02T12:33:10;4.40;;;1.55;;
54384;SDS011;40284;52.878;5.998;2024-03-02T12:35:36;3.80;;;1.20;;
54384;SDS011;40284;52.878;5.998;2024-03-02T12:38:02;3.08;;;1.00;;
54384;SDS011;40284;52.878;5.998;2024-03-02T12:40:30;2.10;;;1.00;;
54384;SDS011;40284;52.878;5.998;2024-03-02T12:42:57;2.95;;;1.50;;
54384;SDS011;40284;52.878;5.998;2024-03-02T12:45:23;6.07;;;1.15;;
54384;SDS011;40284;52.878;5.998;2024-03-02T12:47:49;2.10;;;1.23;;
54384;SDS011;40284;52.878;5.998;2024-03-02T12:50:16;6.07;;;2.63;;
54384;SDS011;40284;52.878;5.998;2024-03-02T12:52:42;4.32;;;1.92;;
54384;SDS011;40284;52.878;5.998;2024-03-02T12:55:09;3.00;;;1.27;;
54384;SDS011;40284;52.878;5.998;2024-03-02T12:57:35;7.03;;;1.95;;
54384;SDS011;40284;52.878;5.998;2024-03-02T13:00:02;2.97;;;1.67;;
54384;SDS011;40284;52.878;5.998;2024-03-02T13:02:39;5.45;;;1.80;;
54384;SDS011;40284;52.878;5.998;2024-03-02T13:05:06;4.70;;;1.63;;
54384;SDS011;40284;52.878;5.998;2024-03-02T13:07:36;4.13;;;1.30;;
54384;SDS011;40284;52.878;5.998;2024-03-02T13:10:02;2.55;;;1.00;;
54384;SDS011;40284;52.878;5.998;2024-03-02T13:12:29;6.22;;;1.42;;
54384;SDS011;40284;52.878;5.998;2024-03-02T13:14:57;3.42;;;1.90;;
54384;SDS011;40284;52.878;5.998;2024-03-02T13:17:24;4.30;;;1.77;;
54384;SDS011;40284;52.878;5.998;2024-03-02T13:22:19;5.38;;;1.10;;
54384;SDS011;40284;52.878;5.998;2024-03-02T13:24:45;7.05;;;1.35;;
54384;SDS011;40284;52.878;5.998;2024-03-02T13:27:11;3.63;;;1.35;;
54384;SDS011;40284;52.878;5.998;2024-03-02T13:29:38;1.88;;;1.00;;
54384;SDS011;40284;52.878;5.998;2024-03-02T13:32:04;3.13;;;1.00;;
54384;SDS011;40284;52.878;5.998;2024-03-02T13:34:30;4.03;;;1.48;;
54384;SDS011;40284;52.878;5.998;2024-03-02T13:36:56;4.95;;;1.20;;
54384;SDS011;40284;52.878;5.998;2024-03-02T13:39:22;2.60;;;1.27;;
54384;SDS011;40284;52.878;5.998;2024-03-02T13:41:48;3.70;;;0.90;;
54384;SDS011;40284;52.878;5.998;2024-03-02T13:44:22;2.33;;;0.90;;
54384;SDS011;40284;52.878;5.998;2024-03-02T13:46:48;1.27;;;0.90;;
54384;SDS011;40284;52.878;5.998;2024-03-02T13:49:14;3.90;;;1.48;;
54384;SDS011;40284;52.878;5.998;2024-03-02T13:51:40;3.33;;;1.30;;
54384;SDS011;40284;52.878;5.998;2024-03-02T13:54:06;5.00;;;1.33;;
54384;SDS011;40284;52.878;5.998;2024-03-02T13:56:32;3.72;;;1.30;;
54384;SDS011;40284;52.878;5.998;2024-03-02T13:58:59;4.45;;;1.80;;
54384;SDS011;40284;52.878;5.998;2024-03-02T14:01:25;3.67;;;1.23;;
54384;SDS011;40284;52.878;5.998;2024-03-02T14:03:54;3.13;;;1.02;;
54384;SDS011;40284;52.878;5.998;2024-03-02T14:06:20;3.25;;;1.13;;
54384;SDS011;40284;52.878;5.998;2024-03-02T14:08:46;1.58;;;1.00;;
54384;SDS011;40284;52.878;5.998;2024-03-02T14:11:13;3.92;;;1.70;;
54384;SDS011;40284;52.878;5.998;2024-03-02T14:13:41;3.15;;;1.20;;
54384;SDS011;40284;52.878;5.998;2024-03-02T14:16:09;2.15;;;1.20;;
54384;SDS011;40284;52.878;5.998;2024-03-02T14:18:35;4.60;;;1.65;;
54384;SDS011;40284;52.878;5.998;2024-03-02T14:21:01;3.15;;;1.25;;
54384;SDS011;40284;52.878;5.998;2024-03-02T14:23:29;6.03;;;2.13;;
54384;SDS011;40284;52.878;5.998;2024-03-02T14:25:55;3.95;;;1.58;;
54384;SDS011;40284;52.878;5.998;2024-03-02T14:28:24;1.90;;;1.20;;
54384;SDS011;40284;52.878;5.998;2024-03-02T14:30:50;5.90;;;2.20;;
54384;SDS011;40284;52.878;5.998;2024-03-02T14:33:16;3.47;;;1.60;;
54384;SDS011;40284;52.878;5.998;2024-03-02T14:35:44;4.68;;;2.33;;
54384;SDS011;40284;52.878;5.998;2024-03-02T14:38:10;2.72;;;1.48;;
54384;SDS011;40284;52.878;5.998;2024-03-02T14:40:37;3.70;;;1.35;;
54384;SDS011;40284;52.878;5.998;2024-03-02T14:43:03;3.70;;;1.73;;
54384;SDS011;40284;52.878;5.998;2024-03-02T14:45:29;6.25;;;2.30;;
54384;SDS011;40284;52.878;5.998;2024-03-02T14:47:56;3.10;;;1.70;;
54384;SDS011;40284;52.878;5.998;2024-03-02T14:50:25;3.72;;;1.92;;
54384;SDS011;40284;52.878;5.998;2024-03-02T14:52:51;7.93;;;1.60;;